JST82B YPAD-YSCB
Flight info
| Callsign | JST82B |
|---|---|
| Flight time | 1h 16m |
| Altitude | 35000 |
| Route | AD V255 BENDO H36 NONUP J142 CB |
| Aircraft | A320/M-SDE3FGHIRWY/LB1 |
Departure
| Time | 2026-05-06 13:10 |
|---|---|
| Airport | Adelaide International Airport (YPAD) |
Arrival
| Time | 2026-05-06 14:26 |
|---|---|
| Airport | Canberra Airport (YSCB) |
| Time | Latitude | Longitude | Altitude | Speed | Heading |
|---|---|---|---|---|---|
| 2026-05-06 13:10 | -35.03203 | 138.66828 | 7957 ft | 300 kts | 110° |
| 2026-05-06 13:10 | -35.03824 | 138.69283 | 8860 ft | 304 kts | 110° |
| 2026-05-06 13:10 | -35.04461 | 138.71766 | 9719 ft | 309 kts | 110° |
| 2026-05-06 13:11 | -35.05117 | 138.74313 | 10287 ft | 325 kts | 110° |
| 2026-05-06 13:11 | -35.05818 | 138.77035 | 10622 ft | 344 kts | 110° |
| 2026-05-06 13:11 | -35.06540 | 138.79852 | 11269 ft | 351 kts | 110° |
| 2026-05-06 13:11 | -35.07268 | 138.82718 | 12006 ft | 355 kts | 110° |
| 2026-05-06 13:12 | -35.08001 | 138.85625 | 12731 ft | 360 kts | 110° |
| 2026-05-06 13:12 | -35.08737 | 138.88552 | 13483 ft | 363 kts | 109° |
| 2026-05-06 13:12 | -35.09483 | 138.91517 | 14191 ft | 367 kts | 109° |
| 2026-05-06 13:12 | -35.10237 | 138.94516 | 14837 ft | 371 kts | 109° |
| 2026-05-06 13:13 | -35.10998 | 138.97534 | 15476 ft | 374 kts | 109° |
| 2026-05-06 13:13 | -35.11769 | 139.00596 | 16127 ft | 378 kts | 109° |
| 2026-05-06 13:13 | -35.12544 | 139.03674 | 16792 ft | 382 kts | 109° |
| 2026-05-06 13:13 | -35.13329 | 139.06799 | 17432 ft | 386 kts | 109° |
| 2026-05-06 13:14 | -35.14120 | 139.09950 | 18070 ft | 390 kts | 109° |
| 2026-05-06 13:14 | -35.14920 | 139.13138 | 18664 ft | 395 kts | 110° |
| 2026-05-06 13:14 | -35.15728 | 139.16362 | 19220 ft | 399 kts | 110° |
| 2026-05-06 13:14 | -35.16541 | 139.19614 | 19811 ft | 402 kts | 110° |
| 2026-05-06 13:15 | -35.17361 | 139.22894 | 20416 ft | 405 kts | 110° |
| 2026-05-06 13:15 | -35.18190 | 139.26207 | 20992 ft | 408 kts | 110° |
| 2026-05-06 13:15 | -35.19022 | 139.29536 | 21546 ft | 412 kts | 110° |
| 2026-05-06 13:15 | -35.19860 | 139.32900 | 22116 ft | 415 kts | 110° |
| 2026-05-06 13:16 | -35.20705 | 139.36291 | 22660 ft | 419 kts | 110° |
| 2026-05-06 13:16 | -35.21554 | 139.39712 | 23231 ft | 422 kts | 110° |
| 2026-05-06 13:16 | -35.22407 | 139.43161 | 23796 ft | 425 kts | 110° |
| 2026-05-06 13:16 | -35.23263 | 139.46638 | 24264 ft | 429 kts | 110° |
| 2026-05-06 13:17 | -35.24085 | 139.50166 | 24731 ft | 433 kts | 105° |
| 2026-05-06 13:17 | -35.24518 | 139.53834 | 25183 ft | 439 kts | 96° |
| 2026-05-06 13:17 | -35.24726 | 139.57581 | 25619 ft | 442 kts | 95° |
| 2026-05-06 13:17 | -35.24936 | 139.61336 | 26061 ft | 445 kts | 95° |
| 2026-05-06 13:18 | -35.25149 | 139.65122 | 26505 ft | 447 kts | 95° |
| 2026-05-06 13:18 | -35.25360 | 139.68890 | 26933 ft | 450 kts | 95° |
| 2026-05-06 13:18 | -35.25577 | 139.72766 | 27384 ft | 452 kts | 95° |
| 2026-05-06 13:18 | -35.25788 | 139.76569 | 27784 ft | 455 kts | 95° |
| 2026-05-06 13:19 | -35.26004 | 139.80441 | 28176 ft | 458 kts | 94° |
| 2026-05-06 13:19 | -35.26219 | 139.84348 | 28584 ft | 461 kts | 94° |
| 2026-05-06 13:19 | -35.26435 | 139.88269 | 28987 ft | 463 kts | 94° |
| 2026-05-06 13:19 | -35.26651 | 139.92211 | 29388 ft | 466 kts | 94° |
| 2026-05-06 13:20 | -35.26856 | 139.96176 | 29782 ft | 468 kts | 94° |
| 2026-05-06 13:20 | -35.27056 | 140.00173 | 30173 ft | 471 kts | 94° |
| 2026-05-06 13:20 | -35.27269 | 140.04186 | 30515 ft | 474 kts | 94° |
| 2026-05-06 13:20 | -35.27489 | 140.08221 | 30833 ft | 477 kts | 94° |
| 2026-05-06 13:21 | -35.27712 | 140.12282 | 31148 ft | 480 kts | 94° |
| 2026-05-06 13:21 | -35.27934 | 140.16360 | 31460 ft | 482 kts | 94° |
| 2026-05-06 13:21 | -35.28151 | 140.20477 | 31784 ft | 485 kts | 93° |
| 2026-05-06 13:21 | -35.28366 | 140.24591 | 32190 ft | 485 kts | 93° |
| 2026-05-06 13:22 | -35.28578 | 140.28711 | 32593 ft | 485 kts | 92° |
| 2026-05-06 13:22 | -35.28786 | 140.32844 | 32990 ft | 486 kts | 92° |
| 2026-05-06 13:22 | -35.28989 | 140.36919 | 33399 ft | 486 kts | 92° |
| 2026-05-06 13:22 | -35.29196 | 140.41049 | 33828 ft | 486 kts | 92° |
| 2026-05-06 13:23 | -35.29408 | 140.45179 | 34249 ft | 486 kts | 92° |
| 2026-05-06 13:23 | -35.29620 | 140.49310 | 34594 ft | 487 kts | 92° |
| 2026-05-06 13:23 | -35.29824 | 140.53444 | 34928 ft | 487 kts | 92° |
| 2026-05-06 13:23 | -35.30025 | 140.57584 | 35152 ft | 488 kts | 91° |
| 2026-05-06 13:24 | -35.30222 | 140.61712 | 35200 ft | 483 kts | 91° |
| 2026-05-06 13:24 | -35.30613 | 140.69901 | 35195 ft | 480 kts | 91° |
| 2026-05-06 13:25 | -35.30999 | 140.78073 | 35200 ft | 480 kts | 91° |
| 2026-05-06 13:25 | -35.31383 | 140.86233 | 35176 ft | 480 kts | 91° |
| 2026-05-06 13:26 | -35.31762 | 140.94398 | 35196 ft | 481 kts | 91° |
| 2026-05-06 13:26 | -35.32137 | 141.02576 | 35197 ft | 481 kts | 91° |
| 2026-05-06 13:27 | -35.32502 | 141.10765 | 35208 ft | 481 kts | 91° |
| 2026-05-06 13:27 | -35.32863 | 141.18899 | 35205 ft | 481 kts | 91° |
| 2026-05-06 13:28 | -35.33222 | 141.27088 | 35211 ft | 482 kts | 91° |
| 2026-05-06 13:28 | -35.33571 | 141.35282 | 35206 ft | 482 kts | 91° |
| 2026-05-06 13:29 | -35.33907 | 141.43474 | 35199 ft | 482 kts | 90° |
| 2026-05-06 13:29 | -35.34241 | 141.51676 | 35200 ft | 482 kts | 91° |
| 2026-05-06 13:30 | -35.34576 | 141.59867 | 35202 ft | 481 kts | 91° |
| 2026-05-06 13:30 | -35.34906 | 141.68056 | 35204 ft | 481 kts | 91° |
| 2026-05-06 13:31 | -35.35229 | 141.76251 | 35200 ft | 481 kts | 90° |
| 2026-05-06 13:31 | -35.35543 | 141.84382 | 35197 ft | 481 kts | 90° |
| 2026-05-06 13:32 | -35.35860 | 141.92561 | 35195 ft | 481 kts | 90° |
| 2026-05-06 13:32 | -35.36168 | 142.00752 | 35194 ft | 481 kts | 90° |
| 2026-05-06 13:33 | -35.36469 | 142.08933 | 35176 ft | 481 kts | 90° |
| 2026-05-06 13:33 | -35.36761 | 142.17122 | 35188 ft | 481 kts | 90° |
| 2026-05-06 13:34 | -35.37046 | 142.25306 | 35188 ft | 481 kts | 90° |
| 2026-05-06 13:34 | -35.37318 | 142.33488 | 35195 ft | 481 kts | 90° |
| 2026-05-06 13:35 | -35.37600 | 142.41692 | 35199 ft | 481 kts | 90° |
| 2026-05-06 13:35 | -35.37876 | 142.49837 | 35200 ft | 480 kts | 90° |
| 2026-05-06 13:36 | -35.38151 | 142.58014 | 35194 ft | 480 kts | 90° |
| 2026-05-06 13:36 | -35.38411 | 142.66192 | 35170 ft | 480 kts | 90° |
| 2026-05-06 13:37 | -35.38661 | 142.74371 | 35181 ft | 480 kts | 90° |
| 2026-05-06 13:37 | -35.38913 | 142.82551 | 35191 ft | 480 kts | 89° |
| 2026-05-06 13:38 | -35.39153 | 142.90729 | 35197 ft | 480 kts | 89° |
| 2026-05-06 13:38 | -35.39390 | 142.98909 | 35196 ft | 480 kts | 89° |
| 2026-05-06 13:39 | -35.39619 | 143.07095 | 35198 ft | 480 kts | 89° |
| 2026-05-06 13:39 | -35.39844 | 143.15269 | 35197 ft | 480 kts | 89° |
| 2026-05-06 13:40 | -35.40070 | 143.23453 | 35201 ft | 480 kts | 89° |
| 2026-05-06 13:40 | -35.40294 | 143.31634 | 35185 ft | 479 kts | 89° |
| 2026-05-06 13:41 | -35.40503 | 143.39750 | 35189 ft | 479 kts | 89° |
| 2026-05-06 13:41 | -35.40710 | 143.47898 | 35197 ft | 479 kts | 89° |
| 2026-05-06 13:42 | -35.40902 | 143.56057 | 35202 ft | 479 kts | 89° |
| 2026-05-06 13:42 | -35.41098 | 143.64211 | 35203 ft | 479 kts | 89° |
| 2026-05-06 13:43 | -35.41289 | 143.72368 | 35202 ft | 478 kts | 89° |
| 2026-05-06 13:43 | -35.41472 | 143.80527 | 35197 ft | 478 kts | 89° |
| 2026-05-06 13:44 | -35.41649 | 143.88683 | 35199 ft | 478 kts | 89° |
| 2026-05-06 13:44 | -35.41824 | 143.96830 | 35188 ft | 478 kts | 89° |
| 2026-05-06 13:45 | -35.41993 | 144.04974 | 35190 ft | 478 kts | 89° |
| 2026-05-06 13:45 | -35.42225 | 144.17178 | 35195 ft | 477 kts | 89° |
| 2026-05-06 13:46 | -35.42382 | 144.25311 | 35192 ft | 477 kts | 89° |
| 2026-05-06 13:46 | -35.42535 | 144.33389 | 35192 ft | 477 kts | 89° |
| 2026-05-06 13:47 | -35.42677 | 144.41513 | 35193 ft | 476 kts | 88° |
| 2026-05-06 13:47 | -35.42808 | 144.49638 | 35193 ft | 476 kts | 88° |
| 2026-05-06 13:48 | -35.42931 | 144.57751 | 35179 ft | 476 kts | 89° |
| 2026-05-06 13:48 | -35.43058 | 144.65862 | 35187 ft | 476 kts | 89° |
| 2026-05-06 13:49 | -35.43182 | 144.73968 | 35189 ft | 475 kts | 88° |
| 2026-05-06 13:49 | -35.43294 | 144.82079 | 35195 ft | 475 kts | 88° |
| 2026-05-06 13:50 | -35.43383 | 144.88814 | 35199 ft | 475 kts | 88° |
| 2026-05-06 13:50 | -35.43487 | 144.96913 | 35192 ft | 475 kts | 88° |
| 2026-05-06 13:51 | -35.43591 | 145.05009 | 35205 ft | 475 kts | 88° |
| 2026-05-06 13:51 | -35.43685 | 145.13100 | 35201 ft | 474 kts | 88° |
| 2026-05-06 13:52 | -35.43772 | 145.21184 | 35188 ft | 474 kts | 88° |
| 2026-05-06 13:52 | -35.43855 | 145.29271 | 35186 ft | 474 kts | 88° |
| 2026-05-06 13:53 | -35.43934 | 145.37345 | 35194 ft | 474 kts | 88° |
| 2026-05-06 13:53 | -35.43999 | 145.45343 | 35199 ft | 473 kts | 88° |
| 2026-05-06 13:54 | -35.44056 | 145.53403 | 35199 ft | 473 kts | 88° |
| 2026-05-06 13:54 | -35.44119 | 145.61470 | 35200 ft | 473 kts | 88° |
| 2026-05-06 13:55 | -35.44180 | 145.69533 | 35190 ft | 473 kts | 88° |
| 2026-05-06 13:55 | -35.44229 | 145.77592 | 35198 ft | 472 kts | 88° |
| 2026-05-06 13:56 | -35.44273 | 145.85651 | 35190 ft | 472 kts | 87° |
| 2026-05-06 13:56 | -35.44312 | 145.93698 | 35195 ft | 472 kts | 87° |
| 2026-05-06 13:57 | -35.44348 | 146.01746 | 35190 ft | 472 kts | 87° |
| 2026-05-06 13:57 | -35.44375 | 146.09803 | 35201 ft | 472 kts | 87° |
| 2026-05-06 13:58 | -35.44396 | 146.17795 | 35197 ft | 472 kts | 87° |
| 2026-05-06 13:58 | -35.44415 | 146.25841 | 35200 ft | 472 kts | 87° |
| 2026-05-06 13:59 | -35.44428 | 146.33902 | 35194 ft | 472 kts | 87° |
| 2026-05-06 13:59 | -35.44439 | 146.41940 | 35200 ft | 471 kts | 87° |
| 2026-05-06 14:00 | -35.44440 | 146.49971 | 35201 ft | 471 kts | 87° |
| 2026-05-06 14:00 | -35.44436 | 146.58004 | 35181 ft | 470 kts | 87° |
| 2026-05-06 14:01 | -35.44429 | 146.66019 | 35197 ft | 470 kts | 87° |
| 2026-05-06 14:01 | -35.44412 | 146.74035 | 35194 ft | 470 kts | 87° |
| 2026-05-06 14:02 | -35.44402 | 146.78028 | 34966 ft | 466 kts | 87° |
| 2026-05-06 14:02 | -35.44393 | 146.81984 | 34691 ft | 462 kts | 86° |
| 2026-05-06 14:02 | -35.44381 | 146.85860 | 34447 ft | 459 kts | 87° |
| 2026-05-06 14:02 | -35.44554 | 146.89768 | 34209 ft | 459 kts | 95° |
| 2026-05-06 14:03 | -35.45148 | 146.93617 | 33944 ft | 459 kts | 101° |
| 2026-05-06 14:03 | -35.45843 | 146.97429 | 33669 ft | 457 kts | 101° |
| 2026-05-06 14:03 | -35.46524 | 147.01212 | 33349 ft | 452 kts | 100° |
| 2026-05-06 14:03 | -35.47195 | 147.04963 | 32896 ft | 449 kts | 100° |
| 2026-05-06 14:04 | -35.47859 | 147.08690 | 32459 ft | 446 kts | 100° |
| 2026-05-06 14:04 | -35.48517 | 147.12393 | 32026 ft | 443 kts | 100° |
| 2026-05-06 14:04 | -35.49167 | 147.16075 | 31603 ft | 440 kts | 100° |
| 2026-05-06 14:04 | -35.49812 | 147.19738 | 31178 ft | 438 kts | 100° |
| 2026-05-06 14:05 | -35.50454 | 147.23382 | 30771 ft | 436 kts | 100° |
| 2026-05-06 14:05 | -35.51093 | 147.27008 | 30364 ft | 434 kts | 100° |
| 2026-05-06 14:05 | -35.51729 | 147.30620 | 29923 ft | 432 kts | 100° |
| 2026-05-06 14:05 | -35.52361 | 147.34207 | 29540 ft | 428 kts | 100° |
| 2026-05-06 14:06 | -35.52987 | 147.37769 | 29163 ft | 425 kts | 100° |
| 2026-05-06 14:06 | -35.53607 | 147.41307 | 28784 ft | 422 kts | 101° |
| 2026-05-06 14:06 | -35.54221 | 147.44822 | 28423 ft | 420 kts | 101° |
| 2026-05-06 14:06 | -35.54829 | 147.48318 | 28044 ft | 417 kts | 101° |
| 2026-05-06 14:07 | -35.55431 | 147.51795 | 27659 ft | 415 kts | 101° |
| 2026-05-06 14:07 | -35.56031 | 147.55251 | 27284 ft | 413 kts | 101° |
| 2026-05-06 14:07 | -35.56628 | 147.58688 | 26897 ft | 411 kts | 101° |
| 2026-05-06 14:07 | -35.57224 | 147.62109 | 26511 ft | 409 kts | 101° |
| 2026-05-06 14:08 | -35.57816 | 147.65512 | 26114 ft | 406 kts | 101° |
| 2026-05-06 14:08 | -35.58401 | 147.68908 | 25714 ft | 405 kts | 101° |
| 2026-05-06 14:08 | -35.58977 | 147.72282 | 25319 ft | 403 kts | 101° |
| 2026-05-06 14:08 | -35.59551 | 147.75642 | 24908 ft | 401 kts | 101° |
| 2026-05-06 14:09 | -35.60125 | 147.78990 | 24501 ft | 400 kts | 101° |
| 2026-05-06 14:09 | -35.60698 | 147.82326 | 24077 ft | 399 kts | 101° |
| 2026-05-06 14:09 | -35.61271 | 147.85656 | 23652 ft | 398 kts | 101° |
| 2026-05-06 14:09 | -35.61840 | 147.88977 | 23204 ft | 395 kts | 101° |
| 2026-05-06 14:10 | -35.62401 | 147.92271 | 22792 ft | 392 kts | 101° |
| 2026-05-06 14:10 | -35.62954 | 147.95545 | 22378 ft | 389 kts | 101° |
| 2026-05-06 14:10 | -35.63504 | 147.98788 | 21972 ft | 386 kts | 101° |
| 2026-05-06 14:10 | -35.64052 | 148.02010 | 21569 ft | 384 kts | 101° |
| 2026-05-06 14:11 | -35.64594 | 148.05204 | 21162 ft | 381 kts | 101° |
| 2026-05-06 14:11 | -35.65133 | 148.08385 | 20760 ft | 379 kts | 101° |
| 2026-05-06 14:11 | -35.65660 | 148.11508 | 20366 ft | 377 kts | 101° |
| 2026-05-06 14:11 | -35.66191 | 148.14657 | 19955 ft | 375 kts | 100° |
| 2026-05-06 14:12 | -35.66716 | 148.17789 | 19557 ft | 373 kts | 100° |
| 2026-05-06 14:12 | -35.67237 | 148.20899 | 19150 ft | 371 kts | 100° |
| 2026-05-06 14:12 | -35.67756 | 148.24000 | 18765 ft | 369 kts | 100° |
| 2026-05-06 14:12 | -35.68271 | 148.27082 | 18351 ft | 367 kts | 100° |
| 2026-05-06 14:13 | -35.68782 | 148.30146 | 17929 ft | 363 kts | 100° |
| 2026-05-06 14:13 | -35.69286 | 148.33168 | 17551 ft | 359 kts | 100° |
| 2026-05-06 14:13 | -35.69786 | 148.36169 | 17162 ft | 357 kts | 100° |
| 2026-05-06 14:13 | -35.70283 | 148.39151 | 16778 ft | 355 kts | 100° |
| 2026-05-06 14:14 | -35.70775 | 148.42112 | 16402 ft | 352 kts | 100° |
| 2026-05-06 14:14 | -35.71266 | 148.45060 | 16018 ft | 350 kts | 100° |
| 2026-05-06 14:14 | -35.71749 | 148.47985 | 15632 ft | 348 kts | 100° |
| 2026-05-06 14:14 | -35.72226 | 148.50896 | 15269 ft | 346 kts | 100° |
| 2026-05-06 14:15 | -35.72700 | 148.53796 | 14885 ft | 345 kts | 100° |
| 2026-05-06 14:15 | -35.73158 | 148.56685 | 14529 ft | 343 kts | 97° |
| 2026-05-06 14:15 | -35.73269 | 148.59600 | 14151 ft | 340 kts | 84° |
| 2026-05-06 14:15 | -35.72898 | 148.62449 | 13776 ft | 335 kts | 71° |
| 2026-05-06 14:16 | -35.72145 | 148.65142 | 13401 ft | 331 kts | 66° |
| 2026-05-06 14:16 | -35.71355 | 148.67791 | 13043 ft | 328 kts | 67° |
| 2026-05-06 14:16 | -35.70573 | 148.70425 | 12676 ft | 326 kts | 67° |
| 2026-05-06 14:16 | -35.69797 | 148.73039 | 12321 ft | 324 kts | 67° |
| 2026-05-06 14:17 | -35.69026 | 148.75634 | 11971 ft | 322 kts | 67° |
| 2026-05-06 14:17 | -35.68267 | 148.78181 | 11624 ft | 320 kts | 67° |
| 2026-05-06 14:17 | -35.67501 | 148.80750 | 11281 ft | 319 kts | 67° |
| 2026-05-06 14:17 | -35.66730 | 148.83333 | 10917 ft | 316 kts | 67° |
| 2026-05-06 14:18 | -35.65982 | 148.85836 | 10559 ft | 315 kts | 68° |
| 2026-05-06 14:18 | -35.65229 | 148.88359 | 10204 ft | 314 kts | 68° |
| 2026-05-06 14:18 | -35.64481 | 148.90863 | 9902 ft | 309 kts | 68° |
| 2026-05-06 14:18 | -35.63739 | 148.93344 | 9463 ft | 311 kts | 68° |
| 2026-05-06 14:19 | -35.63000 | 148.95811 | 9207 ft | 305 kts | 68° |
| 2026-05-06 14:19 | -35.62263 | 148.98271 | 8841 ft | 304 kts | 67° |
| 2026-05-06 14:19 | -35.61531 | 149.00709 | 8467 ft | 303 kts | 67° |
| 2026-05-06 14:19 | -35.60802 | 149.03133 | 8129 ft | 301 kts | 68° |
| 2026-05-06 14:20 | -35.60082 | 149.05531 | 7792 ft | 299 kts | 67° |
| 2026-05-06 14:20 | -35.59356 | 149.07924 | 7432 ft | 299 kts | 66° |
| 2026-05-06 14:20 | -35.58607 | 149.10294 | 7142 ft | 296 kts | 66° |
| 2026-05-06 14:20 | -35.57863 | 149.12610 | 6948 ft | 288 kts | 66° |
| 2026-05-06 14:21 | -35.57134 | 149.14868 | 6809 ft | 279 kts | 65° |
| 2026-05-06 14:21 | -35.56242 | 149.16912 | 6639 ft | 268 kts | 47° |
| 2026-05-06 14:21 | -35.54896 | 149.18428 | 6416 ft | 259 kts | 28° |
| 2026-05-06 14:21 | -35.53276 | 149.19279 | 6147 ft | 250 kts | 7° |
| 2026-05-06 14:22 | -35.51563 | 149.19446 | 5828 ft | 248 kts | 356° |
| 2026-05-06 14:22 | -35.49842 | 149.19443 | 5518 ft | 247 kts | 356° |
| 2026-05-06 14:22 | -35.48124 | 149.19444 | 5182 ft | 247 kts | 358° |
| 2026-05-06 14:22 | -35.46460 | 149.19446 | 4864 ft | 231 kts | 356° |
| 2026-05-06 14:23 | -35.44899 | 149.19447 | 4564 ft | 217 kts | 356° |
| 2026-05-06 14:23 | -35.43453 | 149.19447 | 4297 ft | 203 kts | 356° |
| 2026-05-06 14:23 | -35.42092 | 149.19448 | 4035 ft | 189 kts | 357° |
| 2026-05-06 14:23 | -35.40830 | 149.19448 | 3777 ft | 173 kts | 356° |
| 2026-05-06 14:24 | -35.39682 | 149.19448 | 3543 ft | 157 kts | 356° |
| 2026-05-06 14:24 | -35.38640 | 149.19448 | 3338 ft | 144 kts | 357° |
| 2026-05-06 14:24 | -35.37670 | 149.19447 | 3150 ft | 138 kts | 356° |
| 2026-05-06 14:24 | -35.36724 | 149.19446 | 2986 ft | 138 kts | 358° |
| 2026-05-06 14:25 | -35.35786 | 149.19446 | 2791 ft | 134 kts | 356° |
| 2026-05-06 14:25 | -35.34860 | 149.19445 | 2601 ft | 133 kts | 357° |
| 2026-05-06 14:25 | -35.33945 | 149.19440 | 2419 ft | 132 kts | 356° |
| 2026-05-06 14:25 | -35.33009 | 149.19459 | 2228 ft | 136 kts | 358° |
| 2026-05-06 14:26 | -35.32096 | 149.19453 | 2044 ft | 131 kts | 357° |
| 2026-05-06 14:26 | -35.31200 | 149.19449 | 1887 ft | 121 kts | 358° |
| 2026-05-06 14:26 | -35.30475 | 149.19443 | 1880 ft | 84 kts | 359° |
| 2026-05-06 14:26 | -35.30028 | 149.19441 | 1878 ft | 47 kts | 359° |
| 2026-05-06 14:27 | -35.29771 | 149.19445 | 1879 ft | 33 kts | 1° |
| 2026-05-06 14:27 | -35.29610 | 149.19431 | 1879 ft | 19 kts | 330° |
| 2026-05-06 14:27 | -35.29592 | 149.19281 | 1879 ft | 19 kts | 237° |
| 2026-05-06 14:27 | -35.29713 | 149.19244 | 1880 ft | 16 kts | 182° |
| 2026-05-06 14:28 | -35.29830 | 149.19243 | 1880 ft | 17 kts | 180° |
| 2026-05-06 14:28 | -35.29955 | 149.19244 | 1880 ft | 19 kts | 179° |
| 2026-05-06 14:28 | -35.30096 | 149.19246 | 1878 ft | 18 kts | 178° |
| 2026-05-06 14:28 | -35.30202 | 149.19187 | 1876 ft | 18 kts | 218° |
| 2026-05-06 14:29 | -35.30288 | 149.19102 | 1880 ft | 16 kts | 220° |
| 2026-05-06 14:29 | -35.30376 | 149.19015 | 1876 ft | 13 kts | 217° |
| 2026-05-06 14:29 | -35.30445 | 149.18992 | 1880 ft | 11 kts | 173° |
| 2026-05-06 14:29 | -35.30525 | 149.19013 | 1880 ft | 12 kts | 155° |
| 2026-05-06 14:30 | -35.30588 | 149.19092 | 1880 ft | 12 kts | 129° |
| 2026-05-06 14:30 | -35.30622 | 149.19142 | 1877 ft | 7 kts | 137° |
| 2026-05-06 14:30 | -35.30662 | 149.19122 | 1878 ft | 4 kts | 230° |
| 2026-05-06 14:30 | -35.30682 | 149.19092 | 1879 ft | 1 kts | 231° |